Time;durP1;ratioP1;P1;durP2;ratioP2;P2;SDS_P1;SDS_P2;PMS_P1;PMS_P2;Temp;Humidity;BMP_temperature;BMP_pressure;BME280_temperature;BME280_humidity;BME280_pressure;Samples;Min_cycle;Max_cycle;Signal;HPM_P1;HPM_P2
2023/12/25 00:01:32;;;;;;;7.32;4.07;;;;;;;6.43;100.00;62656.84;5109018;28;20369;-77
2023/12/25 00:04:00;;;;;;;11.82;5.13;;;;;;;6.38;100.00;62659.28;5109871;28;20243;-78
2023/12/25 00:06:27;;;;;;;8.95;4.60;;;;;;;6.42;100.00;62656.31;5109193;28;20217;-79
2023/12/25 00:08:54;;;;;;;13.93;4.70;;;;;;;6.39;100.00;62657.78;5109019;28;20196;-78
2023/12/25 00:11:21;;;;;;;8.43;4.43;;;;;;;6.46;100.00;62662.47;5110915;28;20247;-78
2023/12/25 00:13:50;;;;;;;9.32;3.78;;;;;;;6.34;100.00;62650.09;5109031;28;20466;-78
2023/12/25 00:16:18;;;;;;;6.97;3.80;;;;;;;6.19;100.00;62629.59;5108995;28;20192;-79
2023/12/25 00:18:45;;;;;;;7.88;4.60;;;;;;;6.12;100.00;62624.91;5108604;28;20208;-77
2023/12/25 00:21:13;;;;;;;6.75;3.80;;;;;;;6.17;100.00;62632.56;5107738;28;20193;-78
2023/12/25 00:23:40;;;;;;;9.40;4.82;;;;;;;6.21;100.00;62634.69;5109910;28;20196;-77
2023/12/25 00:26:07;;;;;;;10.98;3.97;;;;;;;6.28;100.00;62641.88;5108194;28;20200;-78
2023/12/25 00:28:34;;;;;;;8.73;5.07;;;;;;;6.27;100.00;62642.88;5108805;28;20241;-79
2023/12/25 00:31:00;;;;;;;10.38;4.80;;;;;;;6.29;100.00;62642.94;5108641;28;20202;-78
2023/12/25 00:33:27;;;;;;;7.60;3.95;;;;;;;6.23;100.00;62643.81;5108330;28;20233;-78
2023/12/25 00:35:55;;;;;;;9.38;4.05;;;;;;;6.34;100.00;62650.09;5108076;28;20214;-78
2023/12/25 00:38:23;;;;;;;7.00;3.88;;;;;;;6.13;100.00;62623.38;5110085;28;20200;-78
2023/12/25 00:40:50;;;;;;;5.07;2.78;;;;;;;6.07;100.00;62622.25;5111238;28;20219;-79
2023/12/25 00:43:17;;;;;;;6.57;3.78;;;;;;;5.94;100.00;62608.88;5093812;28;20210;-78
2023/12/25 00:45:44;;;;;;;8.68;4.13;;;;;;;5.95;100.00;62612.94;5087652;28;20287;-78
2023/12/25 00:48:11;;;;;;;7.82;4.40;;;;;;;5.98;100.00;62615.50;5088108;28;20501;-78
2023/12/25 00:50:38;;;;;;;6.43;3.85;;;;;;;5.91;100.00;62605.78;5087910;28;20217;-78
2023/12/25 00:53:05;;;;;;;10.95;4.20;;;;;;;5.93;100.00;62608.34;5091153;28;20196;-79
2023/12/25 00:55:34;;;;;;;6.35;4.07;;;;;;;5.97;100.00;62611.97;5089070;28;20262;-79
2023/12/25 00:58:00;;;;;;;9.15;4.47;;;;;;;5.94;100.00;62608.88;5088116;28;20200;-77
2023/12/25 01:00:27;;;;;;;4.85;3.42;;;;;;;5.78;100.00;62597.94;5087620;28;20224;-78
2023/12/25 01:02:54;;;;;;;8.85;4.40;;;;;;;5.81;100.00;62596.50;5087980;28;20242;-79
2023/12/25 01:05:21;;;;;;;5.15;3.50;;;;;;;5.84;100.00;62602.13;5089369;28;20232;-78
2023/12/25 01:07:48;;;;;;;5.25;3.88;;;;;;;5.88;100.00;62602.69;5087450;28;20204;-78
2023/12/25 01:10:15;;;;;;;6.22;3.53;;;;;;;5.85;100.00;62600.09;5087236;28;20231;-78
2023/12/25 01:12:43;;;;;;;5.97;3.28;;;;;;;5.83;100.00;62601.09;5092090;28;20231;-78
2023/12/25 01:15:10;;;;;;;4.97;3.30;;;;;;;5.82;100.00;62594.47;5088040;28;20292;-79
2023/12/25 01:17:37;;;;;;;5.43;3.13;;;;;;;5.79;100.00;62594.44;5089310;28;20241;-79
2023/12/25 01:20:05;;;;;;;7.50;3.13;;;;;;;5.78;100.00;62595.41;5107571;28;20254;-78
2023/12/25 01:22:32;;;;;;;4.82;2.95;;;;;;;5.74;100.00;62591.28;5110012;28;20199;-79
2023/12/25 01:24:59;;;;;;;6.38;3.40;;;;;;;5.69;100.00;62586.13;5107079;28;20451;-78
2023/12/25 01:27:26;;;;;;;5.55;2.80;;;;;;;5.66;100.00;62578.50;5107941;28;20211;-78
2023/12/25 01:29:54;;;;;;;5.10;3.38;;;;;;;5.60;100.00;62572.31;5107420;28;20215;-78
2023/12/25 01:32:21;;;;;;;10.57;3.90;;;;;;;5.56;100.00;62573.25;5107033;28;20191;-76
2023/12/25 01:34:48;;;;;;;4.78;3.70;;;;;;;5.60;100.00;62571.81;5107083;28;20302;-78
2023/12/25 01:37:15;;;;;;;6.57;3.38;;;;;;;5.59;100.00;62570.78;5109424;28;20216;-77
2023/12/25 01:39:42;;;;;;;12.52;3.83;;;;;;;5.66;100.00;62585.56;5107209;28;20287;-77
2023/12/25 01:42:08;;;;;;;8.68;3.85;;;;;;;5.71;100.00;62585.66;5101109;28;20474;-77
2023/12/25 01:44:35;;;;;;;8.60;3.47;;;;;;;5.70;100.00;62582.63;5086805;28;20216;-78
2023/12/25 01:47:04;;;;;;;6.53;3.05;;;;;;;5.74;100.00;62591.28;5087929;28;20215;-77
2023/12/25 01:49:31;;;;;;;6.45;3.10;;;;;;;5.71;100.00;62583.16;5086828;28;20259;-78
2023/12/25 01:51:57;;;;;;;6.65;3.42;;;;;;;5.73;100.00;62587.72;5086454;28;20196;-78
2023/12/25 01:54:25;;;;;;;6.93;3.83;;;;;;;5.74;100.00;62591.81;5088752;28;20444;-77
2023/12/25 01:56:52;;;;;;;6.00;3.55;;;;;;;5.78;100.00;62592.88;5086644;28;20205;-78
2023/12/25 01:59:18;;;;;;;4.72;3.15;;;;;;;5.81;100.00;62598.50;5086735;28;20223;-78
2023/12/25 02:01:45;;;;;;;3.65;3.28;;;;;;;5.75;100.00;62587.78;5088725;28;20219;-78
2023/12/25 02:04:14;;;;;;;5.43;2.85;;;;;;;5.71;100.00;62588.69;5086523;28;20228;-78
2023/12/25 02:06:41;;;;;;;5.10;3.15;;;;;;;5.68;100.00;62585.09;5087818;28;20200;-77
2023/12/25 02:09:08;;;;;;;9.90;3.83;;;;;;;5.48;100.00;62565.00;5087946;28;20212;-79
2023/12/25 02:11:38;;;;;;;4.80;3.53;;;;;;;5.53;100.00;62567.13;5088699;28;20200;-78
2023/12/25 02:14:05;;;;;;;9.95;4.10;;;;;;;5.48;100.00;62559.97;5086507;28;20220;-78
2023/12/25 02:16:32;;;;;;;10.45;5.43;;;;;;;5.46;100.00;62555.38;5086436;28;20264;-78
2023/12/25 02:18:58;;;;;;;9.90;3.60;;;;;;;5.49;100.00;62563.50;5099866;28;20381;-79
2023/12/25 02:21:27;;;;;;;4.72;3.40;;;;;;;5.43;100.00;62557.34;5109274;28;20421;-78
2023/12/25 02:23:55;;;;;;;4.40;3.30;;;;;;;5.43;100.00;62557.34;5106572;28;20242;-77
2023/12/25 02:26:24;;;;;;;3.67;2.78;;;;;;;5.48;100.00;62567.00;5107102;28;20523;-78
2023/12/25 02:28:51;;;;;;;6.53;3.42;;;;;;;5.51;100.00;62565.06;5109170;28;20196;-78
2023/12/25 02:31:18;;;;;;;5.07;2.78;;;;;;;5.45;100.00;62558.88;5105426;28;20192;-78
2023/12/25 02:33:45;;;;;;;5.88;2.97;;;;;;;5.46;100.00;62557.91;5105756;28;20196;-79
2023/12/25 02:36:13;;;;;;;9.07;3.70;;;;;;;5.46;100.00;62557.91;5108083;28;20227;-78
2023/12/25 02:38:40;;;;;;;5.65;3.13;;;;;;;5.49;100.00;62563.00;5106351;28;20192;-79
2023/12/25 02:41:07;;;;;;;5.25;2.83;;;;;;;5.48;100.00;62562.47;5105729;28;20263;-78
2023/12/25 02:43:35;;;;;;;7.28;3.63;;;;;;;5.57;100.00;62571.75;5088526;28;20200;-78
2023/12/25 02:46:02;;;;;;;13.90;5.60;;;;;;;5.60;100.00;62574.84;5085354;28;20189;-79
2023/12/25 02:48:29;;;;;;;9.02;4.05;;;;;;;5.52;100.00;62566.09;5085610;28;20509;-79
2023/12/25 02:50:56;;;;;;;5.35;3.90;;;;;;;5.56;100.00;62572.72;5086116;28;20541;-79
2023/12/25 02:53:23;;;;;;;5.88;3.42;;;;;;;5.49;100.00;62566.03;5088698;28;20257;-78
2023/12/25 02:55:49;;;;;;;6.47;3.67;;;;;;;5.51;100.00;62565.56;5086965;28;20293;-79
2023/12/25 02:58:16;;;;;;;9.80;3.63;;;;;;;5.49;100.00;62560.47;5086791;28;20200;-78
2023/12/25 03:00:45;;;;;;;8.35;3.42;;;;;;;5.51;100.00;62565.06;5086045;28;20326;-78
2023/12/25 03:03:12;;;;;;;9.52;3.72;;;;;;;5.53;100.00;62567.13;5085496;28;20200;-77
2023/12/25 03:05:40;;;;;;;5.90;3.35;;;;;;;5.47;100.00;62555.91;5089867;28;20220;-78
2023/12/25 03:08:08;;;;;;;4.60;3.30;;;;;;;5.50;100.00;62566.56;5089127;28;20381;-78
2023/12/25 03:10:34;;;;;;;5.07;3.60;;;;;;;5.49;100.00;62568.03;5088954;28;20732;-78
2023/12/25 03:13:02;;;;;;;6.80;3.30;;;;;;;5.47;100.00;62563.47;5091177;28;20196;-77
2023/12/25 03:15:28;;;;;;;7.25;3.58;;;;;;;5.50;100.00;62561.50;5088952;28;20277;-78
2023/12/25 03:17:57;;;;;;;6.60;3.10;;;;;;;5.51;100.00;62567.56;5089504;28;20282;-78
2023/12/25 03:20:24;;;;;;;5.40;2.95;;;;;;;5.54;100.00;62568.16;5091665;28;20216;-77
2023/12/25 03:22:51;;;;;;;8.25;3.25;;;;;;;5.58;100.00;62572.78;5090155;28;20235;-78
2023/12/25 03:25:18;;;;;;;10.18;3.33;;;;;;;5.58;100.00;62574.78;5089706;28;20212;-78
2023/12/25 03:27:45;;;;;;;5.75;2.85;;;;;;;5.68;100.00;62585.59;5090365;28;20196;-78
2023/12/25 03:30:12;;;;;;;11.90;3.75;;;;;;;5.66;100.00;62581.03;5088586;28;20221;-77
2023/12/25 03:32:40;;;;;;;6.13;3.55;;;;;;;5.65;100.00;62577.47;5088462;28;20201;-77
2023/12/25 03:35:09;;;;;;;4.38;2.90;;;;;;;5.66;100.00;62583.53;5089852;28;20244;-77
2023/12/25 03:37:36;;;;;;;5.03;3.00;;;;;;;5.67;100.00;62579.53;5088388;28;20245;-78
2023/12/25 03:40:04;;;;;;;9.90;3.20;;;;;;;5.71;100.00;62583.66;5089215;28;20216;-79
2023/12/25 03:42:31;;;;;;;8.00;3.20;;;;;;;5.65;100.00;62579.47;5089826;28;20242;-78
2023/12/25 03:44:58;;;;;;;4.30;3.13;;;;;;;5.64;100.00;62578.97;5089846;28;20590;-78
2023/12/25 03:47:25;;;;;;;4.03;2.80;;;;;;;5.61;100.00;62577.88;5089064;28;20261;-77
2023/12/25 03:49:52;;;;;;;3.88;2.75;;;;;;;5.60;100.00;62576.84;5088933;28;20216;-78
2023/12/25 03:52:20;;;;;;;6.25;3.30;;;;;;;5.60;100.00;62572.31;5090078;28;20508;-77
2023/12/25 03:54:48;;;;;;;4.28;3.08;;;;;;;5.57;100.00;62571.75;5090021;28;20224;-78
2023/12/25 03:57:14;;;;;;;5.43;3.13;;;;;;;5.52;100.00;62568.63;5089000;28;20205;-77
2023/12/25 03:59:41;;;;;;;4.32;3.10;;;;;;;5.50;100.00;62561.50;5088075;28;20216;-79
2023/12/25 04:02:08;;;;;;;5.95;3.55;;;;;;;5.43;100.00;62557.34;5090899;28;20204;-77
2023/12/25 04:04:35;;;;;;;5.22;3.50;;;;;;;5.48;100.00;62561.97;5088252;28;20239;-77
2023/12/25 04:07:02;;;;;;;5.70;2.78;;;;;;;5.53;100.00;62569.63;5089421;28;20197;-78
2023/12/25 04:09:30;;;;;;;4.30;2.97;;;;;;;5.56;100.00;62570.72;5088844;28;20217;-77
2023/12/25 04:11:57;;;;;;;5.15;3.42;;;;;;;5.65;100.00;62584.53;5091037;28;20201;-78
2023/12/25 04:14:25;;;;;;;5.13;3.25;;;;;;;5.56;100.00;62565.16;5087512;28;20217;-77
2023/12/25 04:16:52;;;;;;;8.27;3.00;;;;;;;5.64;100.00;62578.97;5087158;28;20286;-78
2023/12/25 04:19:19;;;;;;;4.28;2.90;;;;;;;5.61;100.00;62580.41;5104810;28;20223;-77
2023/12/25 04:21:46;;;;;;;8.48;3.40;;;;;;;5.66;100.00;62580.53;5108342;28;20192;-77
2023/12/25 04:24:13;;;;;;;6.50;3.13;;;;;;;5.62;100.00;62573.88;5108054;28;20265;-78
2023/12/25 04:26:41;;;;;;;6.35;2.90;;;;;;;5.70;100.00;62585.16;5109398;28;20227;-78
2023/12/25 04:29:09;;;;;;;5.55;4.05;;;;;;;5.70;100.00;62587.16;5108131;28;20261;-78
2023/12/25 04:31:36;;;;;;;5.55;2.58;;;;;;;5.81;100.00;62593.44;5110299;28;20191;-78
2023/12/25 04:34:03;;;;;;;6.32;3.30;;;;;;;5.83;100.00;62598.56;5110565;28;20288;-78
2023/12/25 04:36:30;;;;;;;6.05;2.60;;;;;;;5.81;100.00;62595.97;5109120;28;20247;-78
2023/12/25 04:38:58;;;;;;;3.88;2.63;;;;;;;5.80;100.00;62594.94;5108137;28;20212;-77
2023/12/25 04:41:25;;;;;;;4.72;2.88;;;;;;;5.79;100.00;62598.97;5110133;28;20511;-78
2023/12/25 04:43:53;;;;;;;4.13;2.83;;;;;;;5.70;100.00;62587.66;5088298;28;20242;-78
2023/12/25 04:46:20;;;;;;;3.75;2.63;;;;;;;5.72;100.00;62589.75;5088112;28;20220;-77
2023/12/25 04:48:48;;;;;;;3.90;2.65;;;;;;;5.77;100.00;62591.84;5090681;28;20192;-78
2023/12/25 04:51:15;;;;;;;7.43;2.78;;;;;;;5.66;100.00;62580.53;5087635;28;20234;-78
2023/12/25 04:53:42;;;;;;;3.72;2.92;;;;;;;5.53;100.00;62572.16;5087919;28;20497;-78
2023/12/25 04:56:10;;;;;;;5.53;3.05;;;;;;;5.54;100.00;62566.13;5087232;28;20224;-77
2023/12/25 04:58:38;;;;;;;6.25;3.58;;;;;;;5.60;100.00;62571.81;5087741;28;20208;-76
2023/12/25 05:01:06;;;;;;;7.78;3.00;;;;;;;5.62;100.00;62579.44;5087877;28;20203;-78
2023/12/25 05:03:33;;;;;;;5.35;3.38;;;;;;;5.55;100.00;62566.66;5088259;28;20192;-77
2023/12/25 05:06:00;;;;;;;4.47;2.85;;;;;;;5.50;100.00;62564.56;5088227;28;20196;-78
2023/12/25 05:08:27;;;;;;;7.30;4.00;;;;;;;5.49;100.00;62557.94;5086049;28;20205;-78
2023/12/25 05:10:53;;;;;;;8.43;3.40;;;;;;;5.40;100.00;62551.72;5086278;28;20503;-77
2023/12/25 05:13:21;;;;;;;6.35;3.83;;;;;;;5.39;100.00;62552.69;5087880;28;20204;-77
2023/12/25 05:15:48;;;;;;;7.22;3.75;;;;;;;5.47;100.00;62561.44;5087225;28;20236;-78
2023/12/25 05:18:17;;;;;;;10.88;4.07;;;;;;;5.47;100.00;62563.47;5094718;28;20196;-77
2023/12/25 05:20:44;;;;;;;4.03;3.50;;;;;;;5.54;100.00;62568.16;5109234;28;20220;-78
2023/12/25 05:23:11;;;;;;;6.22;3.33;;;;;;;5.55;100.00;62569.19;5106685;28;20383;-76
2023/12/25 05:25:38;;;;;;;14.52;4.30;;;;;;;5.58;100.00;62570.25;5107125;28;20224;-78
2023/12/25 05:28:05;;;;;;;6.75;4.50;;;;;;;5.63;100.00;62577.94;5105813;28;20251;-78
2023/12/25 05:30:33;;;;;;;9.65;3.13;;;;;;;5.66;100.00;62575.97;5109747;28;20215;-78
2023/12/25 05:33:00;;;;;;;4.78;3.38;;;;;;;5.60;100.00;62574.84;5106827;28;20196;-78
2023/12/25 05:35:28;;;;;;;4.57;3.75;;;;;;;5.55;100.00;62569.19;5106607;28;20257;-77
2023/12/25 05:37:56;;;;;;;4.72;3.53;;;;;;;5.54;100.00;62568.66;5108115;28;20267;-78
2023/12/25 05:40:23;;;;;;;4.47;3.28;;;;;;;5.52;100.00;62563.56;5107027;28;20397;-79
2023/12/25 05:42:50;;;;;;;8.45;4.32;;;;;;;5.43;100.00;62559.88;5095393;28;20193;-78
2023/12/25 05:45:19;;;;;;;7.22;4.32;;;;;;;5.48;100.00;62562.47;5085366;28;20278;-77
2023/12/25 05:47:45;;;;;;;6.50;3.90;;;;;;;5.49;100.00;62563.50;5089406;28;20384;-78
2023/12/25 05:50:12;;;;;;;4.63;3.60;;;;;;;5.46;100.00;62559.91;5085886;28;20537;-78
2023/12/25 05:52:41;;;;;;;3.67;3.38;;;;;;;5.41;100.00;62552.75;5087106;28;20201;-78
2023/12/25 05:55:09;;;;;;;3.60;2.90;;;;;;;5.37;100.00;62553.66;5086908;28;20503;-77
2023/12/25 05:57:36;;;;;;;4.13;2.97;;;;;;;5.41;100.00;62554.75;5085378;28;20538;-79
2023/12/25 06:00:04;;;;;;;7.22;2.92;;;;;;;5.38;100.00;62552.19;5086294;28;20235;-78
2023/12/25 06:02:31;;;;;;;9.73;3.22;;;;;;;5.43;100.00;62559.34;5087326;28;20234;-78
2023/12/25 06:04:58;;;;;;;2.72;2.53;;;;;;;5.31;100.00;62546.97;5085329;28;20223;-78
2023/12/25 06:07:26;;;;;;;5.47;2.90;;;;;;;5.29;100.00;62545.44;5085588;28;20419;-77
2023/12/25 06:09:54;;;;;;;6.63;2.60;;;;;;;5.29;100.00;62540.38;5086572;28;20243;-77
2023/12/25 06:12:21;;;;;;;5.25;2.90;;;;;;;5.28;100.00;62541.38;5085953;28;20193;-77
2023/12/25 06:14:48;;;;;;;3.22;2.33;;;;;;;5.30;100.00;62540.88;5086973;28;20251;-78
2023/12/25 06:17:15;;;;;;;7.82;2.45;;;;;;;5.25;100.00;62540.78;5086477;28;20270;-78
2023/12/25 06:19:42;;;;;;;7.70;2.92;;;;;;;5.24;100.00;62540.28;5109942;28;20232;-77
2023/12/25 06:22:11;;;;;;;7.43;3.70;;;;;;;5.25;100.00;62538.78;5106741;28;20196;-78
2023/12/25 06:24:37;;;;;;;5.38;3.15;;;;;;;5.23;100.00;62536.72;5105621;28;20299;-78
2023/12/25 06:27:07;;;;;;;3.40;3.10;;;;;;;5.27;100.00;62542.84;5107595;28;20340;-77
2023/12/25 06:29:33;;;;;;;7.82;3.78;;;;;;;5.36;100.00;62549.59;5106324;28;20219;-78
2023/12/25 06:32:00;;;;;;;10.20;4.00;;;;;;;5.40;100.00;62554.22;5105915;28;20196;-77
2023/12/25 06:34:27;;;;;;;7.88;3.67;;;;;;;5.45;100.00;62558.88;5105162;28;20443;-77
2023/12/25 06:36:55;;;;;;;4.75;4.15;;;;;;;5.52;100.00;62568.63;5105740;28;20461;-76
2023/12/25 06:39:22;;;;;;;4.47;3.53;;;;;;;5.62;100.00;62581.97;5107473;28;20216;-78
2023/12/25 06:41:49;;;;;;;6.25;4.05;;;;;;;5.73;100.00;62587.72;5103542;28;20193;-77
2023/12/25 06:44:17;;;;;;;8.25;3.45;;;;;;;5.80;100.00;62592.91;5086019;28;20236;-78
2023/12/25 06:46:45;;;;;;;5.72;3.40;;;;;;;5.85;100.00;62600.09;5087921;28;20207;-78
2023/12/25 06:49:12;;;;;;;10.60;4.03;;;;;;;5.93;100.00;62605.81;5085491;28;20220;-77
2023/12/25 06:51:39;;;;;;;5.43;3.63;;;;;;;5.94;100.00;62608.88;5085545;28;20196;-78
2023/12/25 06:54:07;;;;;;;4.03;3.30;;;;;;;5.85;100.00;62597.56;5085532;28;20231;-77
2023/12/25 06:56:34;;;;;;;3.78;2.92;;;;;;;5.85;100.00;62600.09;5085349;28;20426;-78
2023/12/25 06:59:01;;;;;;;4.30;2.78;;;;;;;5.96;100.00;62611.44;5088759;28;20254;-77
2023/12/25 07:01:32;;;;;;;5.28;2.72;;;;;;;6.11;100.00;62631.44;5085503;28;20272;-78
2023/12/25 07:03:59;;;;;;;3.45;2.92;;;;;;;6.24;100.00;62640.31;5085780;28;20224;-79
2023/12/25 07:06:26;;;;;;;7.18;3.30;;;;;;;6.35;100.00;62648.59;5085360;28;20205;-78
2023/12/25 07:08:53;;;;;;;5.88;3.58;;;;;;;6.48;100.00;62667.59;5086764;28;20207;-79
2023/12/25 07:11:21;;;;;;;9.70;4.22;;;;;;;6.68;100.00;62685.66;5085477;28;20373;-78
2023/12/25 07:13:48;;;;;;;6.50;3.50;;;;;;;6.96;100.00;62714.03;5086407;28;20200;-78
2023/12/25 07:16:20;;;;;;;13.02;3.63;;;;;;;7.35;98.50;62751.75;5086971;28;20227;-78
2023/12/25 07:18:49;;;;;;;9.07;3.33;;;;;;;7.74;94.71;62794.00;5100273;28;20386;-78
2023/12/25 07:21:17;;;;;;;4.68;3.42;;;;;;;7.83;90.58;62806.38;5106252;28;20238;-78
2023/12/25 07:23:44;;;;;;;10.32;4.38;;;;;;;7.98;89.26;62821.31;5105592;28;20196;-78
2023/12/25 07:26:11;;;;;;;7.68;3.78;;;;;;;8.11;90.00;62835.25;5105681;28;20203;-78
2023/12/25 07:28:38;;;;;;;8.95;3.85;;;;;;;8.16;87.94;62837.88;5107995;28;20230;-79
2023/12/25 07:31:06;;;;;;;8.50;4.07;;;;;;;8.31;88.49;62849.84;5106565;28;20220;-77
2023/12/25 07:33:34;;;;;;;6.10;3.50;;;;;;;8.41;86.08;62865.25;5106505;28;20196;-79
2023/12/25 07:36:04;;;;;;;6.53;3.80;;;;;;;8.47;84.86;62871.97;5105822;28;20227;-78
2023/12/25 07:38:30;;;;;;;7.57;3.15;;;;;;;8.46;84.39;62867.88;5106780;28;20192;-79
2023/12/25 07:40:58;;;;;;;3.40;2.42;;;;;;;8.42;82.14;62864.25;5107219;28;20216;-78
2023/12/25 07:43:26;;;;;;;4.82;3.10;;;;;;;8.51;82.73;62875.59;5106368;28;20259;-77
2023/12/25 07:45:53;;;;;;;4.30;3.20;;;;;;;8.57;81.91;62879.75;5106720;28;20207;-79
2023/12/25 07:48:20;;;;;;;7.55;3.47;;;;;;;8.55;81.11;62877.16;5110697;28;20220;-79
2023/12/25 07:50:49;;;;;;;7.05;3.13;;;;;;;8.58;80.60;62883.31;5110732;28;20226;-79
2023/12/25 07:53:18;;;;;;;5.60;3.03;;;;;;;8.68;82.01;62891.09;5111457;28;20315;-79
2023/12/25 07:55:45;;;;;;;4.20;2.72;;;;;;;8.69;81.30;62894.69;5112803;28;20204;-80
2023/12/25 07:58:14;;;;;;;10.73;3.83;;;;;;;8.62;80.62;62887.47;5113018;28;20234;-81
2023/12/25 08:00:42;;;;;;;10.80;3.30;;;;;;;8.67;80.25;62889.56;5112326;28;20219;-80
2023/12/25 08:03:09;;;;;;;8.40;3.22;;;;;;;8.72;78.95;62897.25;5113062;28;20390;-79
2023/12/25 08:05:36;;;;;;;6.43;3.47;;;;;;;8.75;79.58;62897.84;5113095;28;20230;-80
2023/12/25 08:08:03;;;;;;;5.22;3.05;;;;;;;8.85;79.54;62905.63;5111961;28;20344;-79
2023/12/25 08:10:32;;;;;;;6.80;3.28;;;;;;;8.89;78.34;62914.84;5110953;28;20227;-79
2023/12/25 08:12:59;;;;;;;7.45;3.58;;;;;;;9.02;78.10;62928.28;5112440;28;20473;-78
2023/12/25 08:15:27;;;;;;;6.07;3.40;;;;;;;8.97;77.63;62918.53;5112844;28;20238;-79
2023/12/25 08:17:54;;;;;;;11.70;4.03;;;;;;;9.11;77.84;62935.53;5112667;28;20231;-79
2023/12/25 08:20:20;;;;;;;10.65;6.55;;;;;;;9.24;78.76;62948.47;5112137;28;20216;-79
2023/12/25 08:22:47;;;;;;;9.38;5.78;;;;;;;9.30;76.24;62955.19;5111395;28;20196;-79
2023/12/25 08:25:14;;;;;;;6.50;4.60;;;;;;;9.41;76.48;62970.59;5111516;28;20245;-80
2023/12/25 08:27:42;;;;;;;8.40;3.92;;;;;;;9.44;75.02;62971.19;5111635;28;20559;-80
2023/12/25 08:30:10;;;;;;;5.85;4.60;;;;;;;9.54;75.14;62978.97;5111580;28;20220;-80
2023/12/25 08:32:37;;;;;;;6.63;3.60;;;;;;;9.69;75.49;62997.53;5110957;28;20196;-81
2023/12/25 08:35:04;;;;;;;5.03;2.80;;;;;;;9.77;73.68;63002.75;5110925;28;20212;-80
2023/12/25 08:37:31;;;;;;;4.63;3.10;;;;;;;9.83;72.88;63008.97;5110598;28;20232;-79
2023/12/25 08:39:58;;;;;;;6.47;3.92;;;;;;;9.89;72.68;63013.13;5110274;28;20321;-79
2023/12/25 08:42:25;;;;;;;6.93;3.35;;;;;;;9.90;71.53;63011.13;5104503;28;20193;-80
2023/12/25 08:44:53;;;;;;;8.07;3.78;;;;;;;9.99;71.41;63028.06;5090525;28;20389;-79
2023/12/25 08:47:22;;;;;;;5.22;3.90;;;;;;;10.11;70.84;63035.41;5091152;28;20215;-78
2023/12/25 08:49:49;;;;;;;7.30;3.17;;;;;;;10.19;69.22;63038.59;5090691;28;20647;-80
2023/12/25 08:52:16;;;;;;;8.13;4.30;;;;;;;10.19;68.21;63048.78;5089414;28;20196;-78
2023/12/25 08:54:42;;;;;;;17.85;8.73;;;;;;;10.36;68.27;63063.81;5091736;28;20272;-79
2023/12/25 08:57:09;;;;;;;19.23;9.88;;;;;;;10.39;69.17;63069.44;5090329;28;20401;-79
2023/12/25 08:59:37;;;;;;;10.68;5.93;;;;;;;10.48;68.59;63073.69;5090177;28;20232;-79
2023/12/25 09:02:06;;;;;;;6.97;3.60;;;;;;;10.57;66.89;63085.03;5089024;28;20228;-80
2023/12/25 09:04:32;;;;;;;7.35;3.58;;;;;;;10.68;66.51;63096.41;5090091;28;20240;-79
2023/12/25 09:06:59;;;;;;;5.93;4.07;;;;;;;10.66;65.80;63096.88;5089339;28;20197;-80
2023/12/25 09:09:26;;;;;;;5.85;4.40;;;;;;;10.65;65.83;63096.38;5092728;28;20239;-80
2023/12/25 09:11:53;;;;;;;5.32;3.45;;;;;;;10.73;64.62;63099.56;5091605;28;20204;-79
2023/12/25 09:14:21;;;;;;;5.25;3.10;;;;;;;10.81;64.45;63115.47;5089178;28;20541;-80
2023/12/25 09:16:48;;;;;;;4.50;3.40;;;;;;;10.80;59.68;63109.38;5089608;28;20228;-80
2023/12/25 09:19:16;;;;;;;3.95;2.63;;;;;;;10.74;59.28;63110.25;5090741;28;20263;-79
2023/12/25 09:21:43;;;;;;;3.20;2.78;;;;;;;10.77;58.97;63108.78;5091230;28;20395;-80
2023/12/25 09:24:10;;;;;;;8.65;3.13;;;;;;;10.85;58.96;63117.09;5091613;28;20228;-81
2023/12/25 09:26:37;;;;;;;3.33;2.97;;;;;;;10.83;59.07;63115.00;5091102;28;20199;-80
2023/12/25 09:29:04;;;;;;;3.95;3.03;;;;;;;10.78;58.66;63112.38;5090965;28;20357;-79
2023/12/25 09:31:32;;;;;;;5.07;3.13;;;;;;;10.93;59.45;63122.28;5089419;28;20234;-78
2023/12/25 09:33:59;;;;;;;4.03;3.25;;;;;;;11.15;59.12;63143.03;5090112;28;20209;-79
2023/12/25 09:36:27;;;;;;;5.53;3.78;;;;;;;11.28;58.45;63158.53;5090125;28;20216;-79
2023/12/25 09:38:54;;;;;;;5.60;3.25;;;;;;;11.33;57.82;63161.16;5091053;28;20208;-80
2023/12/25 09:41:21;;;;;;;7.38;3.25;;;;;;;11.41;57.51;63169.97;5089000;28;20224;-78
2023/12/25 09:43:48;;;;;;;6.57;3.50;;;;;;;11.54;57.25;63190.56;5090939;28;20199;-81
2023/12/25 09:46:15;;;;;;;4.68;2.95;;;;;;;11.68;57.35;63196.91;5091319;28;20220;-80
2023/12/25 09:48:42;;;;;;;7.07;3.35;;;;;;;11.73;56.98;63202.09;5090653;28;20207;-81
2023/12/25 09:51:11;;;;;;;4.65;3.22;;;;;;;11.76;57.19;63210.31;5090830;28;20223;-79
2023/12/25 09:53:40;;;;;;;7.20;3.40;;;;;;;11.91;57.39;63225.84;5090361;28;20223;-78
2023/12/25 09:56:07;;;;;;;7.85;4.22;;;;;;;12.00;56.64;63230.06;5088862;28;20223;-79
2023/12/25 09:58:35;;;;;;;6.95;3.88;;;;;;;12.06;56.09;63243.94;5088530;28;20278;-79
2023/12/25 10:01:03;;;;;;;9.13;4.55;;;;;;;11.96;55.56;63229.00;5090392;28;20196;-79
2023/12/25 10:03:31;;;;;;;6.55;4.40;;;;;;;12.00;56.51;63232.63;5091632;28;20267;-80
2023/12/25 10:05:58;;;;;;;8.52;4.72;;;;;;;12.00;57.12;63232.63;5088100;28;20231;-79
2023/12/25 10:08:24;;;;;;;8.60;4.72;;;;;;;12.17;57.12;63253.31;5090674;28;20197;-79
2023/12/25 10:10:56;;;;;;;6.50;4.40;;;;;;;12.35;56.23;63269.44;5090260;28;20223;-80
2023/12/25 10:13:24;;;;;;;9.80;5.13;;;;;;;12.39;56.46;63271.00;5089291;28;20196;-80
2023/12/25 10:15:51;;;;;;;8.55;5.50;;;;;;;12.54;55.40;63293.72;5089331;28;20243;-80
2023/12/25 10:18:19;;;;;;;8.52;5.13;;;;;;;12.66;56.14;63301.56;5097796;28;20257;-79
2023/12/25 10:20:59;;;;;;;6.78;4.57;;;;;;;12.79;54.95;63320.16;5111282;28;20254;-79
2023/12/25 10:23:30;;;;;;;8.02;4.00;;;;;;;12.84;54.47;63322.25;5109867;28;20203;-79
2023/12/25 10:25:59;;;;;;;9.25;3.97;;;;;;;12.95;53.43;63333.66;5109455;28;20219;-79
2023/12/25 10:28:30;;;;;;;8.13;4.28;;;;;;;12.88;53.23;63323.84;5110418;28;20227;-79
2023/12/25 10:31:00;;;;;;;5.32;3.58;;;;;;;12.77;54.07;63312.97;5109713;28;20222;-82
2023/12/25 10:33:27;;;;;;;6.60;4.40;;;;;;;12.90;53.96;63331.03;5110078;28;20200;-79
2023/12/25 10:36:07;;;;;;;5.43;3.92;;;;;;;13.01;52.73;63342.44;5109446;28;20223;-79
2023/12/25 10:38:35;;;;;;;12.23;3.85;;;;;;;13.10;52.46;63344.13;5108424;28;20215;-78
2023/12/25 10:43:56;;;;;;;4.95;3.60;;;;;;;13.26;51.31;63363.28;5126236;27;21028;-78
2023/12/25 10:46:24;;;;;;;7.65;3.72;;;;;;;13.29;51.02;63371.50;5127058;28;20202;-78
2023/12/25 10:48:52;;;;;;;5.25;3.55;;;;;;;13.38;51.52;63372.66;5126438;28;20198;-78
2023/12/25 10:51:26;;;;;;;5.22;3.30;;;;;;;13.44;51.29;63381.94;5126242;28;20282;-78
2023/12/25 10:53:53;;;;;;;6.43;4.60;;;;;;;13.44;50.73;63381.94;5128594;28;20183;-79
2023/12/25 10:56:20;;;;;;;7.22;3.65;;;;;;;13.42;50.86;63381.94;5128052;28;20203;-79
2023/12/25 10:58:48;;;;;;;6.22;4.68;;;;;;;13.28;51.87;63365.38;5126506;28;20213;-78
2023/12/25 11:01:18;;;;;;;5.10;3.78;;;;;;;13.40;50.72;63379.84;5126217;28;20217;-79
2023/12/25 11:03:45;;;;;;;7.93;3.72;;;;;;;13.46;50.12;63383.53;5127359;28;20234;-79
2023/12/25 11:06:12;;;;;;;10.80;5.00;;;;;;;13.50;49.98;63388.19;5126709;28;20191;-79
2023/12/25 11:08:40;;;;;;;6.32;4.05;;;;;;;13.56;50.26;63396.97;5126760;28;20195;-78
2023/12/25 11:11:07;;;;;;;10.55;5.10;;;;;;;13.65;50.73;63403.25;5124995;28;20191;-79
2023/12/25 11:13:34;;;;;;;5.75;4.95;;;;;;;13.63;49.95;63404.22;5125107;28;20195;-79
2023/12/25 11:16:00;;;;;;;7.70;4.68;;;;;;;13.74;50.25;63413.09;5125682;28;20233;-78
2023/12/25 11:18:29;;;;;;;8.35;3.90;;;;;;;13.83;50.08;63422.44;5127461;28;20195;-78
2023/12/25 11:21:03;;;;;;;5.50;4.25;;;;;;;13.92;49.33;63436.38;5123776;28;20211;-79
2023/12/25 11:23:31;;;;;;;5.22;4.13;;;;;;;13.99;50.02;63441.09;5124736;28;20237;-79
2023/12/25 11:26:00;;;;;;;6.35;4.22;;;;;;;14.05;49.70;63444.25;5124607;28;20260;-79
2023/12/25 11:28:26;;;;;;;5.75;3.70;;;;;;;14.17;49.23;63454.66;5123610;28;20203;-78
2023/12/25 11:30:53;;;;;;;6.03;3.80;;;;;;;14.14;48.70;63456.13;5124582;28;20222;-78
2023/12/25 11:33:20;;;;;;;8.82;4.47;;;;;;;14.12;48.89;63454.56;5126540;28;20199;-78
2023/12/25 11:35:49;;;;;;;6.95;4.28;;;;;;;14.07;49.28;63448.88;5124142;28;20282;-78
2023/12/25 11:38:34;;;;;;;5.93;4.22;;;;;;;14.14;49.57;63456.13;5124812;28;20195;-77